EISG/SXL METAR and TAF weather

Enter ICAO airport designator
Station Type Date Time Source
EISG METAR 2019/04/24 19:30 UTC NOAA

EISG 241930Z 11006KT 9999 -RA FEW021 BKN042 OVC055 10/10 Q0987


Station Type Date Time Source
EISG Decoded METAR 2019/04/24 19:30 UTC NOAA

Station name not available
Apr 24, 2019 - 03:30 PM EDT / 2019.04.24 1930 UTC
Wind: from the ESE (110 degrees) at 7 MPH (6 KT):0
Visibility: greater than 7 mile(s):0
Sky conditions: overcast
Weather: light rain
Temperature: 50 F (10 C)
Dew Point: 50 F (10 C)
Relative Humidity: 100%
Pressure (altimeter): 29.15 in. Hg (0987 hPa)
ob: EISG 241930Z 11006KT 9999 -RA FEW021 BKN042 OVC055 10/10 Q0987
cycle: 19

Station Type Date Time Source
EISG TAF UTC NOAA

Error!

Example: see airport list